sensor_id;sensor_type;location;lat;lon;timestamp;pressure;altitude;pressure_sealevel;temperature;humidity
40574;BME280;26283;49.020;8.644;2023-04-24T00:00:57;98197.78;;;17.30;54.68
40574;BME280;26283;49.020;8.644;2023-04-24T00:03:23;98201.34;;;17.30;54.72
40574;BME280;26283;49.020;8.644;2023-04-24T00:05:49;98196.16;;;17.29;54.54
40574;BME280;26283;49.020;8.644;2023-04-24T00:08:15;98198.88;;;17.29;54.55
40574;BME280;26283;49.020;8.644;2023-04-24T00:10:41;98195.34;;;17.28;54.47
40574;BME280;26283;49.020;8.644;2023-04-24T00:13:06;98190.19;;;17.27;54.49
40574;BME280;26283;49.020;8.644;2023-04-24T00:15:32;98195.63;;;17.27;54.43
40574;BME280;26283;49.020;8.644;2023-04-24T00:17:58;98184.22;;;17.25;54.58
40574;BME280;26283;49.020;8.644;2023-04-24T00:20:23;98180.41;;;17.26;54.45
40574;BME280;26283;49.020;8.644;2023-04-24T00:22:48;98190.78;;;17.24;54.22
40574;BME280;26283;49.020;8.644;2023-04-24T00:25:14;98182.59;;;17.24;54.40
40574;BME280;26283;49.020;8.644;2023-04-24T00:27:40;98189.16;;;17.23;54.44
40574;BME280;26283;49.020;8.644;2023-04-24T00:30:08;98194.59;;;17.23;54.19
40574;BME280;26283;49.020;8.644;2023-04-24T00:32:33;98198.41;;;17.22;54.22
40574;BME280;26283;49.020;8.644;2023-04-24T00:34:59;98196.78;;;17.21;54.12
40574;BME280;26283;49.020;8.644;2023-04-24T00:37:24;98190.81;;;17.19;54.09
40574;BME280;26283;49.020;8.644;2023-04-24T00:39:50;98196.25;;;17.19;54.07
40574;BME280;26283;49.020;8.644;2023-04-24T00:42:15;98198.16;;;17.18;53.93
40574;BME280;26283;49.020;8.644;2023-04-24T00:44:41;98203.63;;;17.18;53.93
40574;BME280;26283;49.020;8.644;2023-04-24T00:47:07;98206.34;;;17.18;53.98
40574;BME280;26283;49.020;8.644;2023-04-24T00:49:32;98200.06;;;17.18;53.95
40574;BME280;26283;49.020;8.644;2023-04-24T00:51:57;98189.47;;;17.16;53.99
40574;BME280;26283;49.020;8.644;2023-04-24T00:54:24;98194.91;;;17.16;54.00
40574;BME280;26283;49.020;8.644;2023-04-24T00:56:50;98187.84;;;17.15;53.93
40574;BME280;26283;49.020;8.644;2023-04-24T00:59:16;98177.25;;;17.13;53.82
40574;BME280;26283;49.020;8.644;2023-04-24T01:01:43;98182.69;;;17.13;53.85
40574;BME280;26283;49.020;8.644;2023-04-24T01:04:09;98177.53;;;17.12;53.81
40574;BME280;26283;49.020;8.644;2023-04-24T01:06:36;98175.62;;;17.12;53.80
40574;BME280;26283;49.020;8.644;2023-04-24T01:09:03;98175.62;;;17.12;53.79
40574;BME280;26283;49.020;8.644;2023-04-24T01:11:29;98170.47;;;17.11;53.82
40574;BME280;26283;49.020;8.644;2023-04-24T01:13:55;98173.19;;;17.11;53.84
40574;BME280;26283;49.020;8.644;2023-04-24T01:16:21;98176.22;;;17.09;53.80
40574;BME280;26283;49.020;8.644;2023-04-24T01:18:47;98173.50;;;17.09;53.78
40574;BME280;26283;49.020;8.644;2023-04-24T01:21:15;98171.06;;;17.08;53.77
40574;BME280;26283;49.020;8.644;2023-04-24T01:23:44;98174.06;;;17.06;53.96
40574;BME280;26283;49.020;8.644;2023-04-24T01:26:11;98168.62;;;17.06;53.82
40574;BME280;26283;49.020;8.644;2023-04-24T01:28:37;98172.44;;;17.05;53.87
40574;BME280;26283;49.020;8.644;2023-04-24T01:31:02;98171.63;;;17.05;53.91
40574;BME280;26283;49.020;8.644;2023-04-24T01:33:28;98171.63;;;17.05;53.86
40574;BME280;26283;49.020;8.644;2023-04-24T01:35:53;98167.28;;;17.04;53.85
40574;BME280;26283;49.020;8.644;2023-04-24T01:38:19;98169.19;;;17.03;53.93
40574;BME280;26283;49.020;8.644;2023-04-24T01:40:44;98173.00;;;17.02;53.90
40574;BME280;26283;49.020;8.644;2023-04-24T01:43:11;98168.38;;;17.03;53.89
40574;BME280;26283;49.020;8.644;2023-04-24T01:45:36;98163.22;;;17.01;53.93
40574;BME280;26283;49.020;8.644;2023-04-24T01:48:02;98162.69;;;16.99;53.95
40574;BME280;26283;49.020;8.644;2023-04-24T01:50:28;98159.97;;;16.99;53.94
40574;BME280;26283;49.020;8.644;2023-04-24T01:52:53;98166.22;;;17.00;54.01
40574;BME280;26283;49.020;8.644;2023-04-24T01:55:18;98162.69;;;16.99;53.97
40574;BME280;26283;49.020;8.644;2023-04-24T01:57:44;98159.97;;;16.99;53.97
40574;BME280;26283;49.020;8.644;2023-04-24T02:00:10;98162.16;;;16.97;54.00
40574;BME280;26283;49.020;8.644;2023-04-24T02:02:37;98159.44;;;16.97;54.02
40574;BME280;26283;49.020;8.644;2023-04-24T02:05:06;98165.97;;;16.96;54.07
40574;BME280;26283;49.020;8.644;2023-04-24T02:07:31;98165.19;;;16.96;54.05
40574;BME280;26283;49.020;8.644;2023-04-24T02:09:57;98164.34;;;16.95;54.15
40574;BME280;26283;49.020;8.644;2023-04-24T02:12:23;98167.09;;;16.95;54.18
40574;BME280;26283;49.020;8.644;2023-04-24T02:14:48;98170.91;;;16.94;54.22
40574;BME280;26283;49.020;8.644;2023-04-24T02:17:14;98163.84;;;16.93;54.16
40574;BME280;26283;49.020;8.644;2023-04-24T02:19:40;98158.38;;;16.93;54.19
40574;BME280;26283;49.020;8.644;2023-04-24T02:22:06;98154.03;;;16.92;54.27
40574;BME280;26283;49.020;8.644;2023-04-24T02:24:31;98156.75;;;16.92;54.30
40574;BME280;26283;49.020;8.644;2023-04-24T02:26:56;98160.59;;;16.91;54.24
40574;BME280;26283;49.020;8.644;2023-04-24T02:29:23;98164.41;;;16.90;54.22
40574;BME280;26283;49.020;8.644;2023-04-24T02:31:48;98162.00;;;16.89;54.26
40574;BME280;26283;49.020;8.644;2023-04-24T02:34:13;98163.59;;;16.90;54.29
40574;BME280;26283;49.020;8.644;2023-04-24T02:36:39;98169.34;;;16.88;54.29
40574;BME280;26283;49.020;8.644;2023-04-24T02:39:05;98169.34;;;16.88;54.34
40574;BME280;26283;49.020;8.644;2023-04-24T02:41:30;98167.72;;;16.87;54.30
40574;BME280;26283;49.020;8.644;2023-04-24T02:43:58;98165.00;;;16.87;54.32
40574;BME280;26283;49.020;8.644;2023-04-24T02:46:23;98159.03;;;16.85;54.37
40574;BME280;26283;49.020;8.644;2023-04-24T02:48:49;98163.38;;;16.86;54.42
40574;BME280;26283;49.020;8.644;2023-04-24T02:51:14;98157.41;;;16.84;54.48
40574;BME280;26283;49.020;8.644;2023-04-24T02:53:40;98160.94;;;16.85;54.55
40574;BME280;26283;49.020;8.644;2023-04-24T02:56:05;98156.59;;;16.84;54.54
40574;BME280;26283;49.020;8.644;2023-04-24T02:58:31;98159.31;;;16.84;54.57
40574;BME280;26283;49.020;8.644;2023-04-24T03:00:56;98166.66;;;16.83;54.58
40574;BME280;26283;49.020;8.644;2023-04-24T03:03:22;98155.25;;;16.81;54.59
40574;BME280;26283;49.020;8.644;2023-04-24T03:05:47;98160.69;;;16.81;54.64
40574;BME280;26283;49.020;8.644;2023-04-24T03:08:12;98167.75;;;16.82;54.66
40574;BME280;26283;49.020;8.644;2023-04-24T03:10:39;98163.69;;;16.79;54.71
40574;BME280;26283;49.020;8.644;2023-04-24T03:13:05;98174.59;;;16.79;54.76
40574;BME280;26283;49.020;8.644;2023-04-24T03:15:30;98174.88;;;16.78;54.82
40574;BME280;26283;49.020;8.644;2023-04-24T03:17:56;98179.50;;;16.77;54.88
40574;BME280;26283;49.020;8.644;2023-04-24T03:20:21;98184.12;;;16.77;54.93
40574;BME280;26283;49.020;8.644;2023-04-24T03:22:47;98195.00;;;16.77;54.98
40574;BME280;26283;49.020;8.644;2023-04-24T03:25:12;98190.66;;;16.76;55.01
40574;BME280;26283;49.020;8.644;2023-04-24T03:27:37;98196.91;;;16.76;55.04
40574;BME280;26283;49.020;8.644;2023-04-24T03:30:05;98199.63;;;16.76;55.13
40574;BME280;26283;49.020;8.644;2023-04-24T03:32:31;98205.34;;;16.75;55.19
40574;BME280;26283;49.020;8.644;2023-04-24T03:34:57;98209.97;;;16.74;55.21
40574;BME280;26283;49.020;8.644;2023-04-24T03:37:22;98213.78;;;16.73;55.26
40574;BME280;26283;49.020;8.644;2023-04-24T03:39:48;98226.31;;;16.74;55.26
40574;BME280;26283;49.020;8.644;2023-04-24T03:42:13;98229.31;;;16.73;55.26
40574;BME280;26283;49.020;8.644;2023-04-24T03:44:38;98225.78;;;16.72;55.29
40574;BME280;26283;49.020;8.644;2023-04-24T03:47:04;98238.56;;;16.72;55.30
40574;BME280;26283;49.020;8.644;2023-04-24T03:49:29;98243.19;;;16.71;55.32
40574;BME280;26283;49.020;8.644;2023-04-24T03:51:55;98257.88;;;16.70;55.37
40574;BME280;26283;49.020;8.644;2023-04-24T03:54:20;98255.97;;;16.71;55.43
40574;BME280;26283;49.020;8.644;2023-04-24T03:56:46;98246.19;;;16.70;55.46
40574;BME280;26283;49.020;8.644;2023-04-24T03:59:11;98255.16;;;16.70;55.51
40574;BME280;26283;49.020;8.644;2023-04-24T04:01:37;98250.00;;;16.69;55.55
40574;BME280;26283;49.020;8.644;2023-04-24T04:04:06;98251.09;;;16.68;55.58
40574;BME280;26283;49.020;8.644;2023-04-24T04:06:32;98254.94;;;16.67;55.63
40574;BME280;26283;49.020;8.644;2023-04-24T04:08:58;98266.59;;;16.67;55.61
40574;BME280;26283;49.020;8.644;2023-04-24T04:11:23;98263.09;;;16.67;55.63
40574;BME280;26283;49.020;8.644;2023-04-24T04:13:48;98269.63;;;16.66;55.67
40574;BME280;26283;49.020;8.644;2023-04-24T04:16:14;98275.06;;;16.66;55.69
40574;BME280;26283;49.020;8.644;2023-04-24T04:18:42;98276.16;;;16.65;55.72
40574;BME280;26283;49.020;8.644;2023-04-24T04:21:07;98281.59;;;16.65;55.72
40574;BME280;26283;49.020;8.644;2023-04-24T04:23:32;98284.34;;;16.65;55.73
40574;BME280;26283;49.020;8.644;2023-04-24T04:25:58;98291.69;;;16.64;55.74
40574;BME280;26283;49.020;8.644;2023-04-24T04:28:23;98286.47;;;16.63;55.73
40574;BME280;26283;49.020;8.644;2023-04-24T04:30:50;98288.38;;;16.62;55.70
40574;BME280;26283;49.020;8.644;2023-04-24T04:33:19;98290.28;;;16.62;55.65
40574;BME280;26283;49.020;8.644;2023-04-24T04:35:45;98291.38;;;16.61;55.65
40574;BME280;26283;49.020;8.644;2023-04-24T04:38:14;98294.91;;;16.61;55.58
40574;BME280;26283;49.020;8.644;2023-04-24T04:40:40;98296.00;;;16.60;55.56
40574;BME280;26283;49.020;8.644;2023-04-24T04:43:05;98301.47;;;16.60;55.61
40574;BME280;26283;49.020;8.644;2023-04-24T04:45:31;98302.56;;;16.59;55.69
40574;BME280;26283;49.020;8.644;2023-04-24T04:47:58;98292.75;;;16.58;55.71
40574;BME280;26283;49.020;8.644;2023-04-24T04:50:26;98315.63;;;16.57;55.68
40574;BME280;26283;49.020;8.644;2023-04-24T04:52:51;98312.06;;;16.57;55.75
40574;BME280;26283;49.020;8.644;2023-04-24T04:55:17;98315.87;;;16.56;55.67
40574;BME280;26283;49.020;8.644;2023-04-24T04:57:43;98315.06;;;16.55;55.80
40574;BME280;26283;49.020;8.644;2023-04-24T05:00:09;98322.41;;;16.55;55.77
40574;BME280;26283;49.020;8.644;2023-04-24T05:02:35;98318.88;;;16.54;55.91
40574;BME280;26283;49.020;8.644;2023-04-24T05:05:01;98324.59;;;16.53;55.75
40574;BME280;26283;49.020;8.644;2023-04-24T05:07:26;98327.59;;;16.51;55.77
40574;BME280;26283;49.020;8.644;2023-04-24T05:09:51;98325.69;;;16.52;55.93
40574;BME280;26283;49.020;8.644;2023-04-24T05:12:17;98333.03;;;16.51;56.08
40574;BME280;26283;49.020;8.644;2023-04-24T05:14:42;98321.63;;;16.49;56.22
40574;BME280;26283;49.020;8.644;2023-04-24T05:17:08;98325.16;;;16.50;56.35
40574;BME280;26283;49.020;8.644;2023-04-24T05:19:33;98332.78;;;16.48;56.36
40574;BME280;26283;49.020;8.644;2023-04-24T05:22:01;98340.41;;;16.45;56.44
40574;BME280;26283;49.020;8.644;2023-04-24T05:24:28;98342.34;;;16.45;56.52
40574;BME280;26283;49.020;8.644;2023-04-24T05:26:53;98341.53;;;16.44;56.68
40574;BME280;26283;49.020;8.644;2023-04-24T05:29:19;98344.25;;;16.44;56.75
40574;BME280;26283;49.020;8.644;2023-04-24T05:31:45;98349.16;;;16.42;56.79
40574;BME280;26283;49.020;8.644;2023-04-24T05:34:10;98354.59;;;16.42;56.81
40574;BME280;26283;49.020;8.644;2023-04-24T05:36:36;98352.13;;;16.41;56.84
40574;BME280;26283;49.020;8.644;2023-04-24T05:39:01;98363.81;;;16.41;56.94
40574;BME280;26283;49.020;8.644;2023-04-24T05:41:27;98363.28;;;16.39;56.99
40574;BME280;26283;49.020;8.644;2023-04-24T05:43:52;98366.00;;;16.39;57.11
40574;BME280;26283;49.020;8.644;2023-04-24T05:46:17;98369.00;;;16.38;57.08
40574;BME280;26283;49.020;8.644;2023-04-24T05:48:43;98370.91;;;16.37;57.18
40574;BME280;26283;49.020;8.644;2023-04-24T05:51:09;98366.56;;;16.36;57.31
40574;BME280;26283;49.020;8.644;2023-04-24T05:53:35;98366.56;;;16.36;57.45
40574;BME280;26283;49.020;8.644;2023-04-24T05:56:00;98379.34;;;16.36;57.54
40574;BME280;26283;49.020;8.644;2023-04-24T05:58:26;98373.38;;;16.34;57.56
40574;BME280;26283;49.020;8.644;2023-04-24T06:00:51;98377.16;;;16.33;57.47
40574;BME280;26283;49.020;8.644;2023-04-24T06:03:17;98389.94;;;16.32;57.50
40574;BME280;26283;49.020;8.644;2023-04-24T06:05:42;98382.88;;;16.31;57.54
40574;BME280;26283;49.020;8.644;2023-04-24T06:08:07;98390.22;;;16.31;57.62
40574;BME280;26283;49.020;8.644;2023-04-24T06:10:33;98389.41;;;16.30;57.75
40574;BME280;26283;49.020;8.644;2023-04-24T06:12:58;98380.44;;;16.30;57.78
40574;BME280;26283;49.020;8.644;2023-04-24T06:15:28;98383.44;;;16.28;57.78
40574;BME280;26283;49.020;8.644;2023-04-24T06:17:53;98386.16;;;16.28;57.80
40574;BME280;26283;49.020;8.644;2023-04-24T06:20:18;98398.94;;;16.28;57.81
40574;BME280;26283;49.020;8.644;2023-04-24T06:22:44;98392.69;;;16.27;57.75
40574;BME280;26283;49.020;8.644;2023-04-24T06:25:09;98385.63;;;16.26;57.51
40574;BME280;26283;49.020;8.644;2023-04-24T06:27:35;98385.06;;;16.24;57.36
40574;BME280;26283;49.020;8.644;2023-04-24T06:30:00;98391.31;;;16.25;57.29
40574;BME280;26283;49.020;8.644;2023-04-24T06:32:27;98395.16;;;16.24;57.26
40574;BME280;26283;49.020;8.644;2023-04-24T06:34:52;98397.34;;;16.22;57.45
40574;BME280;26283;49.020;8.644;2023-04-24T06:37:19;98393.00;;;16.21;57.51
40574;BME280;26283;49.020;8.644;2023-04-24T06:39:45;98395.72;;;16.21;57.49
40574;BME280;26283;49.020;8.644;2023-04-24T06:42:11;98396.53;;;16.21;57.56
40574;BME280;26283;49.020;8.644;2023-04-24T06:44:36;98398.69;;;16.19;57.58
40574;BME280;26283;49.020;8.644;2023-04-24T06:47:07;98395.16;;;16.19;57.55
40574;BME280;26283;49.020;8.644;2023-04-24T06:49:33;98401.41;;;16.19;57.46
40574;BME280;26283;49.020;8.644;2023-04-24T06:51:59;98402.50;;;16.18;57.50
40574;BME280;26283;49.020;8.644;2023-04-24T06:54:24;98407.13;;;16.18;57.10
40574;BME280;26283;49.020;8.644;2023-04-24T06:56:49;98404.69;;;16.16;57.15
40574;BME280;26283;49.020;8.644;2023-04-24T06:59:16;98406.31;;;16.17;57.32
40574;BME280;26283;49.020;8.644;2023-04-24T07:01:41;98405.78;;;16.15;57.53
40574;BME280;26283;49.020;8.644;2023-04-24T07:04:07;98395.72;;;16.16;57.42
40574;BME280;26283;49.020;8.644;2023-04-24T07:06:35;98406.03;;;16.14;56.36
40574;BME280;26283;49.020;8.644;2023-04-24T07:09:01;98408.78;;;16.14;56.42
40574;BME280;26283;49.020;8.644;2023-04-24T07:11:26;98407.94;;;16.13;56.88
40574;BME280;26283;49.020;8.644;2023-04-24T07:13:54;98410.66;;;16.13;57.10
40574;BME280;26283;49.020;8.644;2023-04-24T07:16:19;98416.91;;;16.14;57.09
40574;BME280;26283;49.020;8.644;2023-04-24T07:18:45;98406.88;;;16.14;57.09
40574;BME280;26283;49.020;8.644;2023-04-24T07:21:10;98406.03;;;16.14;57.08
40574;BME280;26283;49.020;8.644;2023-04-24T07:23:36;98411.47;;;16.14;57.08
40574;BME280;26283;49.020;8.644;2023-04-24T07:26:02;98419.62;;;16.14;57.18
40574;BME280;26283;49.020;8.644;2023-04-24T07:28:27;98424.00;;;16.15;57.27
40574;BME280;26283;49.020;8.644;2023-04-24T07:30:56;98428.59;;;16.14;57.27
40574;BME280;26283;49.020;8.644;2023-04-24T07:33:22;98437.56;;;16.15;57.27
40574;BME280;26283;49.020;8.644;2023-04-24T07:35:47;98428.34;;;16.16;57.31
40574;BME280;26283;49.020;8.644;2023-04-24T07:38:13;98432.97;;;16.15;57.29
40574;BME280;26283;49.020;8.644;2023-04-24T07:40:38;98441.09;;;16.15;57.41
40574;BME280;26283;49.020;8.644;2023-04-24T07:43:04;98430.78;;;16.17;57.33
40574;BME280;26283;49.020;8.644;2023-04-24T07:45:29;98439.75;;;16.18;57.15
40574;BME280;26283;49.020;8.644;2023-04-24T07:47:56;98452.53;;;16.17;57.12
40574;BME280;26283;49.020;8.644;2023-04-24T07:50:21;98450.62;;;16.18;57.16
40574;BME280;26283;49.020;8.644;2023-04-24T07:52:47;98456.88;;;16.18;57.07
40574;BME280;26283;49.020;8.644;2023-04-24T07:55:12;98457.69;;;16.19;57.19
40574;BME280;26283;49.020;8.644;2023-04-24T07:57:38;98472.09;;;16.19;57.13
40574;BME280;26283;49.020;8.644;2023-04-24T08:00:05;98475.63;;;16.20;57.25
40574;BME280;26283;49.020;8.644;2023-04-24T08:02:31;98473.72;;;16.20;57.38
40574;BME280;26283;49.020;8.644;2023-04-24T08:04:56;98477.25;;;16.21;57.52
40574;BME280;26283;49.020;8.644;2023-04-24T08:07:23;98481.88;;;16.20;56.31
40574;BME280;26283;49.020;8.644;2023-04-24T08:09:48;98493.56;;;16.21;56.30
40574;BME280;26283;49.020;8.644;2023-04-24T08:12:14;98501.44;;;16.22;56.74
40574;BME280;26283;49.020;8.644;2023-04-24T08:14:39;98535.72;;;16.23;57.62
40574;BME280;26283;49.020;8.644;2023-04-24T08:17:05;98538.94;;;16.25;57.34
40574;BME280;26283;49.020;8.644;2023-04-24T08:19:30;98543.03;;;16.28;57.25
40574;BME280;26283;49.020;8.644;2023-04-24T08:21:56;98553.63;;;16.29;57.25
40574;BME280;26283;49.020;8.644;2023-04-24T08:24:22;98540.56;;;16.31;57.12
40574;BME280;26283;49.020;8.644;2023-04-24T08:26:48;98540.31;;;16.33;56.97
40574;BME280;26283;49.020;8.644;2023-04-24T08:29:17;98552.00;;;16.33;56.85
40574;BME280;26283;49.020;8.644;2023-04-24T08:31:42;98546.28;;;16.35;56.81
40574;BME280;26283;49.020;8.644;2023-04-24T08:34:09;98531.34;;;16.37;56.66
40574;BME280;26283;49.020;8.644;2023-04-24T08:36:34;98522.34;;;16.42;56.38
40574;BME280;26283;49.020;8.644;2023-04-24T08:39:00;98523.19;;;16.42;56.31
40574;BME280;26283;49.020;8.644;2023-04-24T08:41:26;98534.88;;;16.43;56.52
40574;BME280;26283;49.020;8.644;2023-04-24T08:43:52;98543.03;;;16.43;56.52
40574;BME280;26283;49.020;8.644;2023-04-24T08:46:18;98549.28;;;16.43;56.42
40574;BME280;26283;49.020;8.644;2023-04-24T08:48:44;98560.16;;;16.43;56.56
40574;BME280;26283;49.020;8.644;2023-04-24T08:51:10;98564.78;;;16.43;56.47
40574;BME280;26283;49.020;8.644;2023-04-24T08:53:36;98565.59;;;16.43;56.42
40574;BME280;26283;49.020;8.644;2023-04-24T08:56:02;98570.22;;;16.43;56.55
40574;BME280;26283;49.020;8.644;2023-04-24T08:58:28;98560.16;;;16.43;56.52
40574;BME280;26283;49.020;8.644;2023-04-24T09:00:54;98564.50;;;16.44;56.51
40574;BME280;26283;49.020;8.644;2023-04-24T09:03:20;98563.69;;;16.44;56.51
40574;BME280;26283;49.020;8.644;2023-04-24T09:05:47;98566.41;;;16.44;56.54
40574;BME280;26283;49.020;8.644;2023-04-24T09:08:13;98567.22;;;16.44;56.55
40574;BME280;26283;49.020;8.644;2023-04-24T09:10:40;98577.00;;;16.45;56.40
40574;BME280;26283;49.020;8.644;2023-04-24T09:13:06;98581.66;;;16.45;56.30
40574;BME280;26283;49.020;8.644;2023-04-24T09:15:34;98577.00;;;16.45;56.29
40574;BME280;26283;49.020;8.644;2023-04-24T09:18:00;98572.09;;;16.48;56.15
40574;BME280;26283;49.020;8.644;2023-04-24T09:20:26;98561.22;;;16.48;55.92
40574;BME280;26283;49.020;8.644;2023-04-24T09:22:54;98586.78;;;16.46;55.61
40574;BME280;26283;49.020;8.644;2023-04-24T09:25:20;98585.69;;;16.48;55.98
40574;BME280;26283;49.020;8.644;2023-04-24T09:27:48;98567.19;;;16.50;55.90
40574;BME280;26283;49.020;8.644;2023-04-24T09:30:21;98591.41;;;16.51;55.75
40574;BME280;26283;49.020;8.644;2023-04-24T09:32:47;98589.50;;;16.52;55.56
40574;BME280;26283;49.020;8.644;2023-04-24T09:35:14;98599.28;;;16.53;55.41
40574;BME280;26283;49.020;8.644;2023-04-24T09:37:45;98602.28;;;16.51;55.09
40574;BME280;26283;49.020;8.644;2023-04-24T09:42:38;98610.16;;;16.53;54.94
40574;BME280;26283;49.020;8.644;2023-04-24T09:45:08;98616.69;;;16.52;54.62
40574;BME280;26283;49.020;8.644;2023-04-24T09:47:40;98620.25;;;16.52;54.75
40574;BME280;26283;49.020;8.644;2023-04-24T09:50:10;98614.53;;;16.54;54.71
40574;BME280;26283;49.020;8.644;2023-04-24T09:52:35;98623.50;;;16.54;54.73
40574;BME280;26283;49.020;8.644;2023-04-24T09:55:01;98631.38;;;16.56;54.79
40574;BME280;26283;49.020;8.644;2023-04-24T09:57:26;98623.22;;;16.56;54.72
40574;BME280;26283;49.020;8.644;2023-04-24T09:59:53;98631.94;;;16.58;54.55
40574;BME280;26283;49.020;8.644;2023-04-24T10:02:19;98640.09;;;16.58;54.48
40574;BME280;26283;49.020;8.644;2023-04-24T10:04:58;98640.09;;;16.58;54.46
40574;BME280;26283;49.020;8.644;2023-04-24T10:07:28;98636.28;;;16.59;54.43
40574;BME280;26283;49.020;8.644;2023-04-24T10:09:54;98637.91;;;16.60;54.42
40574;BME280;26283;49.020;8.644;2023-04-24T10:12:21;98636.28;;;16.59;54.40
40574;BME280;26283;49.020;8.644;2023-04-24T10:14:46;98631.66;;;16.59;54.41
40574;BME280;26283;49.020;8.644;2023-04-24T10:17:12;98627.03;;;16.60;54.40
40574;BME280;26283;49.020;8.644;2023-04-24T10:19:40;98633.28;;;16.60;54.37
40574;BME280;26283;49.020;8.644;2023-04-24T10:22:06;98631.41;;;16.61;54.34
40574;BME280;26283;49.020;8.644;2023-04-24T10:24:33;98639.56;;;16.61;54.39
40574;BME280;26283;49.020;8.644;2023-04-24T10:26:59;98641.19;;;16.62;54.36
40574;BME280;26283;49.020;8.644;2023-04-24T10:29:26;98636.56;;;16.62;54.34
40574;BME280;26283;49.020;8.644;2023-04-24T10:31:52;98640.09;;;16.63;54.38
40574;BME280;26283;49.020;8.644;2023-04-24T10:34:19;98649.94;;;16.64;54.40
40574;BME280;26283;49.020;8.644;2023-04-24T10:36:48;98635.50;;;16.63;54.37
40574;BME280;26283;49.020;8.644;2023-04-24T10:39:16;98646.94;;;16.65;54.43
40574;BME280;26283;49.020;8.644;2023-04-24T10:41:42;98658.09;;;16.64;54.31
40574;BME280;26283;49.020;8.644;2023-04-24T10:44:11;98648.25;;;16.63;53.86
40574;BME280;26283;49.020;8.644;2023-04-24T10:46:37;98653.97;;;16.61;53.25
40574;BME280;26283;49.020;8.644;2023-04-24T10:49:04;98655.88;;;16.61;52.89
40574;BME280;26283;49.020;8.644;2023-04-24T10:51:47;98664.03;;;16.61;52.70
40574;BME280;26283;49.020;8.644;2023-04-24T10:54:33;98664.31;;;16.59;52.42
40574;BME280;26283;49.020;8.644;2023-04-24T10:59:43;98668.13;;;16.58;51.57
40574;BME280;26283;49.020;8.644;2023-04-24T11:02:09;98672.72;;;16.58;51.41
40574;BME280;26283;49.020;8.644;2023-04-24T11:04:34;98673.00;;;16.56;51.28
40574;BME280;26283;49.020;8.644;2023-04-24T11:07:01;98671.09;;;16.57;51.14
40574;BME280;26283;49.020;8.644;2023-04-24T11:09:30;98668.66;;;16.55;50.90
40574;BME280;26283;49.020;8.644;2023-04-24T11:12:12;98678.72;;;16.55;50.66
40574;BME280;26283;49.020;8.644;2023-04-24T11:15:02;98667.84;;;16.55;50.80
40574;BME280;26283;49.020;8.644;2023-04-24T11:20:06;98683.06;;;16.56;51.02
40574;BME280;26283;49.020;8.644;2023-04-24T11:22:36;98688.50;;;16.56;50.99
40574;BME280;26283;49.020;8.644;2023-04-24T11:25:04;98685.78;;;16.56;51.07
40574;BME280;26283;49.020;8.644;2023-04-24T11:27:31;98683.06;;;16.56;51.16
40574;BME280;26283;49.020;8.644;2023-04-24T11:35:04;98694.75;;;16.56;51.43
40574;BME280;26283;49.020;8.644;2023-04-24T11:37:38;98690.16;;;16.57;51.50
40574;BME280;26283;49.020;8.644;2023-04-24T11:40:09;98692.88;;;16.57;51.40
40574;BME280;26283;49.020;8.644;2023-04-24T11:42:36;98692.88;;;16.57;51.19
40574;BME280;26283;49.020;8.644;2023-04-24T11:45:07;98699.38;;;16.56;51.37
40574;BME280;26283;49.020;8.644;2023-04-24T11:47:33;98696.66;;;16.56;51.43
40574;BME280;26283;49.020;8.644;2023-04-24T11:49:59;98699.13;;;16.57;51.57
40574;BME280;26283;49.020;8.644;2023-04-24T11:52:26;98692.88;;;16.57;51.65
40574;BME280;26283;49.020;8.644;2023-04-24T11:54:52;98713.25;;;16.59;51.76
40574;BME280;26283;49.020;8.644;2023-04-24T11:57:22;98707.00;;;16.59;51.82
40574;BME280;26283;49.020;8.644;2023-04-24T11:59:48;98714.34;;;16.58;51.86
40574;BME280;26283;49.020;8.644;2023-04-24T12:02:23;98731.50;;;16.59;51.93
40574;BME280;26283;49.020;8.644;2023-04-24T12:04:49;98743.19;;;16.59;51.98
40574;BME280;26283;49.020;8.644;2023-04-24T12:07:14;98750.53;;;16.59;52.04
40574;BME280;26283;49.020;8.644;2023-04-24T12:09:55;98736.94;;;16.59;52.08
40574;BME280;26283;49.020;8.644;2023-04-24T12:12:25;98748.91;;;16.58;52.11
40574;BME280;26283;49.020;8.644;2023-04-24T12:14:57;98749.44;;;16.60;52.15
40574;BME280;26283;49.020;8.644;2023-04-24T12:17:25;98750.53;;;16.59;52.19
40574;BME280;26283;49.020;8.644;2023-04-24T12:19:51;98750.53;;;16.59;52.23
40574;BME280;26283;49.020;8.644;2023-04-24T12:22:16;98747.81;;;16.59;52.27
40574;BME280;26283;49.020;8.644;2023-04-24T12:25:01;98745.91;;;16.59;52.32
40574;BME280;26283;49.020;8.644;2023-04-24T12:27:33;98750.53;;;16.59;52.37
40574;BME280;26283;49.020;8.644;2023-04-24T12:30:00;98743.19;;;16.59;52.40
40574;BME280;26283;49.020;8.644;2023-04-24T12:32:26;98754.88;;;16.60;52.42
40574;BME280;26283;49.020;8.644;2023-04-24T12:34:53;98745.91;;;16.59;52.44
40574;BME280;26283;49.020;8.644;2023-04-24T12:37:19;98741.28;;;16.60;52.47
40574;BME280;26283;49.020;8.644;2023-04-24T12:39:58;98741.03;;;16.61;52.49
40574;BME280;26283;49.020;8.644;2023-04-24T12:42:28;98718.72;;;16.59;52.54
40574;BME280;26283;49.020;8.644;2023-04-24T12:44:58;98729.31;;;16.61;52.55
40574;BME280;26283;49.020;8.644;2023-04-24T12:47:25;98721.16;;;16.61;52.58
40574;BME280;26283;49.020;8.644;2023-04-24T12:49:51;98727.69;;;16.60;52.62
40574;BME280;26283;49.020;8.644;2023-04-24T12:52:20;98719.53;;;16.60;52.65
40574;BME280;26283;49.020;8.644;2023-04-24T12:54:46;98717.88;;;16.59;52.67
40574;BME280;26283;49.020;8.644;2023-04-24T12:57:12;98730.69;;;16.58;52.70
40574;BME280;26283;49.020;8.644;2023-04-24T12:59:37;98723.06;;;16.60;52.73
40574;BME280;26283;49.020;8.644;2023-04-24T13:02:04;98719.53;;;16.60;52.76
40574;BME280;26283;49.020;8.644;2023-04-24T13:04:30;98717.88;;;16.59;52.78
40574;BME280;26283;49.020;8.644;2023-04-24T13:06:55;98716.00;;;16.59;52.79
40574;BME280;26283;49.020;8.644;2023-04-24T13:09:21;98725.78;;;16.60;52.79